createdAt,value
2017-01-08T00:00:18.358Z,1012.05
2017-01-08T00:01:18.367Z,1012.08
2017-01-08T00:02:18.378Z,1012.07
2017-01-08T00:03:18.387Z,1012.07
2017-01-08T00:04:18.394Z,1012.02
2017-01-08T00:05:18.407Z,1012.05
2017-01-08T00:06:18.412Z,1012
2017-01-08T00:07:18.422Z,1012.01
2017-01-08T00:08:18.434Z,1012.04
2017-01-08T00:09:18.445Z,1012.05
2017-01-08T00:10:18.449Z,1012.03
2017-01-08T00:11:18.459Z,1012.02
2017-01-08T00:12:18.470Z,1012.02
2017-01-08T00:13:18.478Z,1012.04
2017-01-08T00:14:18.488Z,1011.99
2017-01-08T00:15:18.497Z,1012.02
2017-01-08T00:16:18.507Z,1011.97
2017-01-08T00:17:18.519Z,1011.95
2017-01-08T00:18:18.525Z,1011.94
2017-01-08T00:19:18.534Z,1011.95
2017-01-08T00:20:18.543Z,1012.02
2017-01-08T00:21:18.553Z,1012.02
2017-01-08T00:22:18.562Z,1012.06
2017-01-08T00:23:18.572Z,1012.08
2017-01-08T00:24:18.580Z,1012.04
2017-01-08T00:25:18.592Z,1012.08
2017-01-08T00:26:18.599Z,1012.1
2017-01-08T00:27:18.610Z,1012.1
2017-01-08T00:28:18.622Z,1012.11
2017-01-08T00:29:18.628Z,1012.09
2017-01-08T00:30:18.638Z,1012.09
2017-01-08T00:31:18.646Z,1012.09
2017-01-08T00:32:18.657Z,1012.11
2017-01-08T00:33:18.667Z,1012.09
2017-01-08T00:34:18.676Z,1012.07
2017-01-08T00:35:18.684Z,1012.06
2017-01-08T00:36:18.694Z,1012.1
2017-01-08T00:37:18.703Z,1012.15
2017-01-08T00:38:18.717Z,1012.16
2017-01-08T00:39:18.723Z,1012.18
2017-01-08T00:40:18.733Z,1012.17
2017-01-08T00:41:18.741Z,1012.2
2017-01-08T00:42:18.750Z,1012.23
2017-01-08T00:43:18.786Z,1012.25
2017-01-08T00:44:18.769Z,1012.21
2017-01-08T00:45:18.781Z,1012.25
2017-01-08T00:46:18.787Z,1012.27
2017-01-08T00:47:18.798Z,1012.24
2017-01-08T00:48:18.808Z,1012.24
2017-01-08T00:49:18.819Z,1012.23
2017-01-08T00:50:18.827Z,1012.18
2017-01-08T00:51:18.835Z,1012.21
2017-01-08T00:52:18.846Z,1012.17
2017-01-08T00:53:18.855Z,1012.19
2017-01-08T00:54:18.865Z,1012.18
2017-01-08T00:55:18.873Z,1012.21
2017-01-08T00:56:18.883Z,1012.2
2017-01-08T00:57:18.892Z,1012.22
2017-01-08T00:58:18.902Z,1012.2
2017-01-08T00:59:18.911Z,1012.21
2017-01-08T01:00:18.921Z,1012.23
2017-01-08T01:01:18.931Z,1012.23
2017-01-08T01:02:18.939Z,1012.27
2017-01-08T01:03:18.950Z,1012.23
2017-01-08T01:04:18.958Z,1012.23
2017-01-08T01:05:18.969Z,1012.15
2017-01-08T01:06:18.977Z,1012.18
2017-01-08T01:07:18.988Z,1012.2
2017-01-08T01:08:18.996Z,1012.18
2017-01-08T01:09:19.008Z,1012.18
2017-01-08T01:10:19.020Z,1012.19
2017-01-08T01:11:19.029Z,1012.23
2017-01-08T01:12:19.039Z,1012.2
2017-01-08T01:13:19.046Z,1012.22
2017-01-08T01:14:19.053Z,1012.17
2017-01-08T01:15:19.064Z,1012.12
2017-01-08T01:16:19.072Z,1012.1
2017-01-08T01:17:19.081Z,1012.09
2017-01-08T01:18:19.092Z,1012.03
2017-01-08T01:19:19.100Z,1012.09
2017-01-08T01:20:19.110Z,1012.09
2017-01-08T01:21:19.120Z,1012.11
2017-01-08T01:22:19.132Z,1012.05
2017-01-08T01:23:19.140Z,1012.01
2017-01-08T01:24:19.148Z,1012
2017-01-08T01:25:19.160Z,1012
2017-01-08T01:26:19.170Z,1011.95
2017-01-08T01:27:19.183Z,1011.94
2017-01-08T01:28:19.189Z,1011.96
2017-01-08T01:29:19.197Z,1011.98
2017-01-08T01:30:19.207Z,1011.96
2017-01-08T01:31:19.218Z,1011.93
2017-01-08T01:32:19.226Z,1011.91
2017-01-08T01:33:19.234Z,1011.92
2017-01-08T01:34:19.244Z,1011.91
2017-01-08T01:35:19.252Z,1011.93
2017-01-08T01:36:19.264Z,1011.99
2017-01-08T01:37:19.273Z,1011.98
2017-01-08T01:38:19.287Z,1012.04
2017-01-08T01:39:19.291Z,1012.03
2017-01-08T01:40:19.302Z,1012.03
2017-01-08T01:41:19.311Z,1011.98
2017-01-08T01:42:19.324Z,1011.96
2017-01-08T01:43:19.331Z,1012
2017-01-08T01:44:19.341Z,1011.99
2017-01-08T01:45:19.350Z,1011.97
2017-01-08T01:46:19.359Z,1011.98
2017-01-08T01:47:19.371Z,1012.02
2017-01-08T01:48:19.379Z,1011.96
2017-01-08T01:49:19.390Z,1011.95
2017-01-08T01:50:19.397Z,1011.95
2017-01-08T01:51:19.407Z,1012.01
2017-01-08T01:52:19.417Z,1012.01
2017-01-08T01:53:19.426Z,1011.99
2017-01-08T01:54:19.435Z,1011.99
2017-01-08T01:55:19.444Z,1011.99
2017-01-08T01:56:19.457Z,1011.98
2017-01-08T01:57:19.463Z,1011.96
2017-01-08T01:58:19.473Z,1011.96
2017-01-08T01:59:19.481Z,1011.97
2017-01-08T02:00:19.495Z,1011.98
2017-01-08T02:01:19.503Z,1011.97
2017-01-08T02:02:19.512Z,1011.98
2017-01-08T02:03:19.541Z,1012
2017-01-08T02:04:19.534Z,1012.02
2017-01-08T02:05:19.540Z,1012.06
2017-01-08T02:06:19.552Z,1012.08
2017-01-08T02:07:19.560Z,1012.1
2017-01-08T02:08:19.573Z,1012.11
2017-01-08T02:09:19.581Z,1012.08
2017-01-08T02:10:19.591Z,1012.06
2017-01-08T02:11:19.599Z,1012.03
2017-01-08T02:12:19.609Z,1012
2017-01-08T02:13:19.619Z,1012.01
2017-01-08T02:14:19.629Z,1012.04
2017-01-08T02:15:19.637Z,1012.09
2017-01-08T02:16:19.646Z,1012.15
2017-01-08T02:17:19.660Z,1012.15
2017-01-08T02:18:19.668Z,1012.16
2017-01-08T02:19:19.676Z,1012.13
2017-01-08T02:20:19.690Z,1012.14
2017-01-08T02:21:19.698Z,1012.13
2017-01-08T02:22:19.705Z,1012.1
2017-01-08T02:23:19.714Z,1012.1
2017-01-08T02:24:19.726Z,1012.15
2017-01-08T02:25:19.735Z,1012.16
2017-01-08T02:26:19.742Z,1012.14
2017-01-08T02:27:19.754Z,1012.16
2017-01-08T02:28:19.852Z,1012.13
2017-01-08T02:29:19.772Z,1012.16
2017-01-08T02:30:19.783Z,1012.19
2017-01-08T02:31:19.791Z,1012.18
2017-01-08T02:32:19.802Z,1012.17
2017-01-08T02:33:19.814Z,1012.18
2017-01-08T02:34:19.821Z,1012.18
2017-01-08T02:35:19.832Z,1012.16
2017-01-08T02:36:19.841Z,1012.18
2017-01-08T02:37:19.853Z,1012.15
2017-01-08T02:38:19.859Z,1012.15
2017-01-08T02:39:19.868Z,1012.14
2017-01-08T02:40:19.880Z,1012.15
2017-01-08T02:41:19.887Z,1012.15
2017-01-08T02:42:19.896Z,1012.17
2017-01-08T02:43:19.907Z,1012.22
2017-01-08T02:44:19.916Z,1012.2
2017-01-08T02:45:19.927Z,1012.19
2017-01-08T02:46:19.936Z,1012.17
2017-01-08T02:47:19.947Z,1012.16
2017-01-08T02:48:19.955Z,1012.18
2017-01-08T02:49:19.966Z,1012.18
2017-01-08T02:50:19.974Z,1012.17
2017-01-08T02:51:19.984Z,1012.2
2017-01-08T02:52:19.993Z,1012.22
2017-01-08T02:53:20.005Z,1012.23
2017-01-08T02:54:20.013Z,1012.22
2017-01-08T02:55:20.022Z,1012.26
2017-01-08T02:56:20.032Z,1012.27
2017-01-08T02:57:20.041Z,1012.2
2017-01-08T02:58:20.051Z,1012.25
2017-01-08T02:59:20.060Z,1012.24
2017-01-08T03:00:20.071Z,1012.24
2017-01-08T03:01:20.083Z,1012.25
2017-01-08T03:02:20.090Z,1012.28
2017-01-08T03:03:20.100Z,1012.26
2017-01-08T03:04:20.108Z,1012.25
2017-01-08T03:05:20.119Z,1012.23
2017-01-08T03:06:20.127Z,1012.24
2017-01-08T03:07:20.139Z,1012.21
2017-01-08T03:08:20.147Z,1012.24
2017-01-08T03:09:20.158Z,1012.25
2017-01-08T03:10:20.165Z,1012.2
2017-01-08T03:11:20.176Z,1012.21
2017-01-08T03:12:20.185Z,1012.2
2017-01-08T03:13:20.196Z,1012.21
2017-01-08T03:14:20.205Z,1012.22
2017-01-08T03:15:20.219Z,1012.21
2017-01-08T03:16:20.223Z,1012.18
2017-01-08T03:17:20.231Z,1012.18
2017-01-08T03:18:20.242Z,1012.2
2017-01-08T03:19:20.252Z,1012.21
2017-01-08T03:20:20.266Z,1012.18
2017-01-08T03:21:20.272Z,1012.15
2017-01-08T03:22:20.280Z,1012.18
2017-01-08T03:23:20.290Z,1012.16
2017-01-08T03:24:20.301Z,1012.22
2017-01-08T03:25:20.308Z,1012.21
2017-01-08T03:26:20.318Z,1012.21
2017-01-08T03:27:20.329Z,1012.2
2017-01-08T03:28:20.337Z,1012.13
2017-01-08T03:29:20.348Z,1012.15
2017-01-08T03:30:20.358Z,1012.14
2017-01-08T03:31:20.368Z,1012.12
2017-01-08T03:32:20.377Z,1012.12
2017-01-08T03:33:20.388Z,1012.15
2017-01-08T03:34:20.397Z,1012.16
2017-01-08T03:35:20.407Z,1012.14
2017-01-08T03:36:20.417Z,1012.16
2017-01-08T03:37:20.428Z,1012.16
2017-01-08T03:38:20.437Z,1012.15
2017-01-08T03:39:20.445Z,1012.13
2017-01-08T03:40:20.456Z,1012.1
2017-01-08T03:41:20.465Z,1012.04
2017-01-08T03:42:20.474Z,1012.05
2017-01-08T03:43:20.483Z,1012.07
2017-01-08T03:44:20.495Z,1012.09
2017-01-08T03:45:20.504Z,1012.14
2017-01-08T03:46:20.516Z,1012.14
2017-01-08T03:47:20.524Z,1012.22
2017-01-08T03:48:20.534Z,1012.23
2017-01-08T03:49:20.543Z,1012.21
2017-01-08T03:50:20.553Z,1012.17
2017-01-08T03:51:20.563Z,1012.15
2017-01-08T03:52:20.572Z,1012.15
2017-01-08T03:53:20.583Z,1012.11
2017-01-08T03:54:20.591Z,1012.11
2017-01-08T03:55:20.602Z,1012.16
2017-01-08T03:56:20.614Z,1012.13
2017-01-08T03:57:20.620Z,1012.14
2017-01-08T03:58:20.629Z,1012.19
2017-01-08T03:59:20.641Z,1012.2
2017-01-08T04:00:20.651Z,1012.19
2017-01-08T04:01:20.660Z,1012.19
2017-01-08T04:02:20.671Z,1012.17
2017-01-08T04:03:20.682Z,1012.14
2017-01-08T04:04:20.689Z,1012.16
2017-01-08T04:05:20.701Z,1012.16
2017-01-08T04:06:20.710Z,1012.18
2017-01-08T04:07:20.719Z,1012.15
2017-01-08T04:08:20.729Z,1012.22
2017-01-08T04:09:20.737Z,1012.24
2017-01-08T04:10:20.747Z,1012.21
2017-01-08T04:11:20.757Z,1012.22
2017-01-08T04:12:20.766Z,1012.21
2017-01-08T04:13:20.776Z,1012.17
2017-01-08T04:14:20.787Z,1012.17
2017-01-08T04:15:20.796Z,1012.19
2017-01-08T04:16:20.805Z,1012.19
2017-01-08T04:17:20.816Z,1012.24
2017-01-08T04:18:20.880Z,1012.19
2017-01-08T04:19:20.835Z,1012.22
2017-01-08T04:20:20.847Z,1012.18
2017-01-08T04:21:20.856Z,1012.23
2017-01-08T04:22:20.867Z,1012.21
2017-01-08T04:23:20.876Z,1012.22
2017-01-08T04:24:20.887Z,1012.27
2017-01-08T04:25:20.897Z,1012.24
2017-01-08T04:26:20.907Z,1012.22
2017-01-08T04:27:20.916Z,1012.23
2017-01-08T04:28:20.927Z,1012.25
2017-01-08T04:29:20.936Z,1012.27
2017-01-08T04:30:20.946Z,1012.27
2017-01-08T04:31:20.957Z,1012.28
2017-01-08T04:32:20.968Z,1012.29
2017-01-08T04:33:20.980Z,1012.29
2017-01-08T04:34:20.986Z,1012.3
2017-01-08T04:35:20.996Z,1012.34
2017-01-08T04:36:21.006Z,1012.32
2017-01-08T04:37:21.017Z,1012.32
2017-01-08T04:38:21.026Z,1012.36
2017-01-08T04:39:21.036Z,1012.37
2017-01-08T04:40:21.046Z,1012.36
2017-01-08T04:41:21.058Z,1012.43
2017-01-08T04:42:21.067Z,1012.4
2017-01-08T04:43:21.076Z,1012.46
2017-01-08T04:44:21.087Z,1012.42
2017-01-08T04:45:21.098Z,1012.51
2017-01-08T04:46:21.106Z,1012.48
2017-01-08T04:47:21.116Z,1012.48
2017-01-08T04:48:21.126Z,1012.48
2017-01-08T04:49:21.136Z,1012.53
2017-01-08T04:50:21.145Z,1012.58
2017-01-08T04:51:21.156Z,1012.58
2017-01-08T04:52:21.165Z,1012.57
2017-01-08T04:53:21.176Z,1012.58
2017-01-08T04:54:21.185Z,1012.55
2017-01-08T04:55:21.197Z,1012.61
2017-01-08T04:56:21.206Z,1012.62
2017-01-08T04:57:21.216Z,1012.66
2017-01-08T04:58:21.227Z,1012.69
2017-01-08T04:59:21.237Z,1012.7
2017-01-08T05:00:21.245Z,1012.72
2017-01-08T05:01:21.255Z,1012.74
2017-01-08T05:02:21.266Z,1012.7
2017-01-08T05:03:21.275Z,1012.73
2017-01-08T05:04:21.285Z,1012.74
2017-01-08T05:05:21.297Z,1012.76
2017-01-08T05:06:21.306Z,1012.77
2017-01-08T05:07:21.316Z,1012.79
2017-01-08T05:08:21.326Z,1012.79
2017-01-08T05:09:21.338Z,1012.82
2017-01-08T05:10:21.347Z,1012.84
2017-01-08T05:11:21.357Z,1012.83
2017-01-08T05:12:21.368Z,1012.82
2017-01-08T05:13:21.378Z,1012.79
2017-01-08T05:14:21.389Z,1012.84
2017-01-08T05:15:21.398Z,1012.88
2017-01-08T05:16:21.408Z,1012.86
2017-01-08T05:17:21.418Z,1012.89
2017-01-08T05:18:21.426Z,1012.9
2017-01-08T05:19:21.438Z,1012.96
2017-01-08T05:20:21.448Z,1012.97
2017-01-08T05:21:21.460Z,1012.99
2017-01-08T05:22:21.467Z,1013.01
2017-01-08T05:23:21.478Z,1012.98
2017-01-08T05:24:21.488Z,1013.01
2017-01-08T05:25:21.501Z,1013
2017-01-08T05:26:21.508Z,1012.98
2017-01-08T05:27:21.519Z,1013.04
2017-01-08T05:28:21.528Z,1013.01
2017-01-08T05:29:21.538Z,1013.05
2017-01-08T05:30:21.548Z,1013.08
2017-01-08T05:31:21.557Z,1013.06
2017-01-08T05:32:21.569Z,1013.09
2017-01-08T05:33:21.577Z,1013.08
2017-01-08T05:34:21.589Z,1013.06
2017-01-08T05:35:21.598Z,1013.11
2017-01-08T05:36:21.606Z,1013.09
2017-01-08T05:37:21.617Z,1013.11
2017-01-08T05:38:21.628Z,1013.13
2017-01-08T05:39:21.640Z,1013.16
2017-01-08T05:40:21.648Z,1013.16
2017-01-08T05:41:21.658Z,1013.14
2017-01-08T05:42:21.669Z,1013.16
2017-01-08T05:43:21.679Z,1013.15
2017-01-08T05:44:21.687Z,1013.18
2017-01-08T05:45:21.699Z,1013.2
2017-01-08T05:46:21.708Z,1013.19
2017-01-08T05:47:21.718Z,1013.18
2017-01-08T05:48:21.728Z,1013.18
2017-01-08T05:49:21.741Z,1013.21
2017-01-08T05:50:21.749Z,1013.19
2017-01-08T05:51:21.758Z,1013.18
2017-01-08T05:52:21.769Z,1013.25
2017-01-08T05:53:21.779Z,1013.24
2017-01-08T05:54:21.788Z,1013.27
2017-01-08T05:55:21.798Z,1013.27
2017-01-08T05:56:21.809Z,1013.34
2017-01-08T05:57:21.818Z,1013.28
2017-01-08T05:58:21.829Z,1013.27
2017-01-08T05:59:21.837Z,1013.32
2017-01-08T06:00:21.848Z,1013.33
2017-01-08T06:01:21.859Z,1013.31
2017-01-08T06:02:21.869Z,1013.28
2017-01-08T06:03:21.879Z,1013.34
2017-01-08T06:04:21.890Z,1013.28
2017-01-08T06:05:21.900Z,1013.37
2017-01-08T06:06:21.910Z,1013.36
2017-01-08T06:07:21.922Z,1013.4
2017-01-08T06:08:21.931Z,1013.41
2017-01-08T06:09:21.940Z,1013.39
2017-01-08T06:10:21.950Z,1013.4
2017-01-08T06:11:21.961Z,1013.42
2017-01-08T06:12:21.972Z,1013.38
2017-01-08T06:13:21.981Z,1013.39
2017-01-08T06:14:21.996Z,1013.43
2017-01-08T06:15:22.002Z,1013.42
2017-01-08T06:16:22.011Z,1013.42
2017-01-08T06:17:22.022Z,1013.41
2017-01-08T06:18:22.034Z,1013.38
2017-01-08T06:19:22.047Z,1013.44
2017-01-08T06:20:22.053Z,1013.42
2017-01-08T06:21:22.065Z,1013.43
2017-01-08T06:22:22.072Z,1013.44
2017-01-08T06:23:22.084Z,1013.45
2017-01-08T06:24:22.093Z,1013.46
2017-01-08T06:25:22.103Z,1013.48
2017-01-08T06:26:22.114Z,1013.54
2017-01-08T06:27:22.122Z,1013.57
2017-01-08T06:28:22.134Z,1013.56
2017-01-08T06:29:22.144Z,1013.58
2017-01-08T06:30:22.155Z,1013.54
2017-01-08T06:31:22.165Z,1013.59
2017-01-08T06:32:22.175Z,1013.56
2017-01-08T06:33:22.187Z,1013.58
2017-01-08T06:34:22.196Z,1013.55
2017-01-08T06:35:22.205Z,1013.59
2017-01-08T06:36:22.216Z,1013.58
2017-01-08T06:37:22.225Z,1013.59
2017-01-08T06:38:22.236Z,1013.56
2017-01-08T06:39:22.246Z,1013.54
2017-01-08T06:40:22.256Z,1013.56
2017-01-08T06:41:22.270Z,1013.62
2017-01-08T06:42:22.277Z,1013.62
2017-01-08T06:43:22.289Z,1013.64
2017-01-08T06:44:22.297Z,1013.74
2017-01-08T06:45:22.309Z,1013.73
2017-01-08T06:46:22.320Z,1013.78
2017-01-08T06:47:22.330Z,1013.81
2017-01-08T06:48:22.341Z,1013.82
2017-01-08T06:49:22.349Z,1013.88
2017-01-08T06:50:22.360Z,1013.85
2017-01-08T06:51:22.371Z,1013.89
2017-01-08T06:52:22.382Z,1013.87
2017-01-08T06:53:22.390Z,1013.93
2017-01-08T06:54:22.402Z,1013.91
2017-01-08T06:55:22.413Z,1013.9
2017-01-08T06:56:22.423Z,1013.95
2017-01-08T06:57:22.432Z,1014.03
2017-01-08T06:58:22.442Z,1014.03
2017-01-08T06:59:22.453Z,1014.06
2017-01-08T07:00:22.463Z,1014.06
2017-01-08T07:01:22.472Z,1014.1
2017-01-08T07:02:22.484Z,1014.11
2017-01-08T07:03:22.496Z,1014.11
2017-01-08T07:04:22.505Z,1014.09
2017-01-08T07:05:22.514Z,1014.18
2017-01-08T07:06:22.524Z,1014.16
2017-01-08T07:07:22.534Z,1014.23
2017-01-08T07:08:22.545Z,1014.25
2017-01-08T07:09:22.556Z,1014.24
2017-01-08T07:10:22.566Z,1014.28
2017-01-08T07:11:22.576Z,1014.26
2017-01-08T07:12:22.587Z,1014.25
2017-01-08T07:13:22.598Z,1014.3
2017-01-08T07:14:22.607Z,1014.29
2017-01-08T07:15:22.615Z,1014.29
2017-01-08T07:16:22.628Z,1014.34
2017-01-08T07:17:22.637Z,1014.34
2017-01-08T07:18:22.648Z,1014.36
2017-01-08T07:19:22.660Z,1014.34
2017-01-08T07:20:22.668Z,1014.35
2017-01-08T07:21:22.677Z,1014.33
2017-01-08T07:22:22.687Z,1014.33
2017-01-08T07:23:22.697Z,1014.36
2017-01-08T07:24:22.708Z,1014.39
2017-01-08T07:25:22.719Z,1014.36
2017-01-08T07:26:22.727Z,1014.36
2017-01-08T07:27:22.738Z,1014.37
2017-01-08T07:28:22.749Z,1014.38
2017-01-08T07:29:22.758Z,1014.39
2017-01-08T07:30:22.768Z,1014.42
2017-01-08T07:31:22.779Z,1014.42
2017-01-08T07:32:22.788Z,1014.4
2017-01-08T07:33:22.797Z,1014.35
2017-01-08T07:34:22.808Z,1014.35
2017-01-08T07:35:22.819Z,1014.31
2017-01-08T07:36:22.829Z,1014.31
2017-01-08T07:37:22.840Z,1014.3
2017-01-08T07:38:22.850Z,1014.33
2017-01-08T07:39:22.861Z,1014.33
2017-01-08T07:40:22.870Z,1014.36
2017-01-08T07:41:22.881Z,1014.35
2017-01-08T07:42:22.893Z,1014.35
2017-01-08T07:43:22.900Z,1014.31
2017-01-08T07:44:22.911Z,1014.36
2017-01-08T07:45:22.922Z,1014.34
2017-01-08T07:46:22.932Z,1014.34
2017-01-08T07:47:22.943Z,1014.38
2017-01-08T07:48:22.951Z,1014.39
2017-01-08T07:49:22.962Z,1014.38
2017-01-08T07:50:22.974Z,1014.33
2017-01-08T07:51:22.983Z,1014.32
2017-01-08T07:52:22.994Z,1014.29
2017-01-08T07:53:23.004Z,1014.33
2017-01-08T07:54:23.014Z,1014.34
2017-01-08T07:55:23.024Z,1014.35
2017-01-08T07:56:23.035Z,1014.34
2017-01-08T07:57:23.044Z,1014.34
2017-01-08T07:58:23.055Z,1014.32
2017-01-08T07:59:23.064Z,1014.33
2017-01-08T08:00:23.078Z,1014.33
2017-01-08T08:01:23.085Z,1014.34
2017-01-08T08:02:23.096Z,1014.34
2017-01-08T08:03:23.105Z,1014.32
2017-01-08T08:04:23.126Z,1014.33
2017-01-08T08:05:23.126Z,1014.33
2017-01-08T08:06:23.137Z,1014.33
2017-01-08T08:07:23.147Z,1014.43
2017-01-08T08:08:23.156Z,1014.43
2017-01-08T08:09:23.166Z,1014.48
2017-01-08T08:10:23.176Z,1014.5
2017-01-08T08:11:23.190Z,1014.46
2017-01-08T08:12:23.198Z,1014.48
2017-01-08T08:13:23.207Z,1014.45
2017-01-08T08:14:23.216Z,1014.53
2017-01-08T08:15:23.229Z,1014.56
2017-01-08T08:16:23.239Z,1014.55
2017-01-08T08:17:23.249Z,1014.65
2017-01-08T08:18:23.258Z,1014.69
2017-01-08T08:19:23.271Z,1014.71
2017-01-08T08:20:23.279Z,1014.74
2017-01-08T08:21:23.293Z,1014.78
2017-01-08T08:22:23.299Z,1014.79
2017-01-08T08:23:23.309Z,1014.77
2017-01-08T08:24:23.319Z,1014.85
2017-01-08T08:25:23.330Z,1014.86
2017-01-08T08:26:23.340Z,1014.94
2017-01-08T08:27:23.352Z,1014.94
2017-01-08T08:28:23.361Z,1014.93
2017-01-08T08:29:23.371Z,1014.91
2017-01-08T08:30:23.382Z,1014.88
2017-01-08T08:31:23.392Z,1014.9
2017-01-08T08:32:23.400Z,1014.91
2017-01-08T08:33:23.411Z,1014.98
2017-01-08T08:34:23.422Z,1014.99
2017-01-08T08:35:23.431Z,1014.99
2017-01-08T08:36:23.442Z,1014.92
2017-01-08T08:37:23.452Z,1014.95
2017-01-08T08:38:23.462Z,1014.92
2017-01-08T08:39:23.473Z,1014.89
2017-01-08T08:40:23.483Z,1014.83
2017-01-08T08:41:23.494Z,1014.9
2017-01-08T08:42:23.504Z,1014.87
2017-01-08T08:43:23.515Z,1014.92
2017-01-08T08:44:23.523Z,1014.95
2017-01-08T08:45:23.534Z,1015
2017-01-08T08:46:23.544Z,1015.01
2017-01-08T08:47:23.555Z,1015
2017-01-08T08:48:23.564Z,1015.05
2017-01-08T08:49:23.576Z,1015.06
2017-01-08T08:50:23.585Z,1015.06
2017-01-08T08:51:23.596Z,1015.05
2017-01-08T08:52:23.605Z,1015.1
2017-01-08T08:53:23.616Z,1015.16
2017-01-08T08:54:23.626Z,1015.11
2017-01-08T08:55:23.638Z,1015.11
2017-01-08T08:56:23.648Z,1015.11
2017-01-08T08:57:23.659Z,1015.09
2017-01-08T08:58:23.669Z,1015.1
2017-01-08T08:59:23.688Z,1015.11
2017-01-08T09:00:23.688Z,1015.09
2017-01-08T09:01:23.794Z,1015.11
2017-01-08T09:02:23.708Z,1015.1
2017-01-08T09:03:23.873Z,1015.11
2017-01-08T09:04:23.729Z,1015.09
2017-01-08T09:05:23.740Z,1015.1
2017-01-08T09:06:23.749Z,1015.11
2017-01-08T09:07:23.762Z,1015.12
2017-01-08T09:08:23.770Z,1015.13
2017-01-08T09:09:23.781Z,1015.1
2017-01-08T09:10:23.790Z,1015.09
2017-01-08T09:11:23.801Z,1015.11
2017-01-08T09:12:23.811Z,1015.1
2017-01-08T09:13:23.822Z,1015.09
2017-01-08T09:14:23.833Z,1015.1
2017-01-08T09:15:23.842Z,1015.11
2017-01-08T09:16:23.852Z,1015.13
2017-01-08T09:17:23.864Z,1015.16
2017-01-08T09:18:23.874Z,1015.17
2017-01-08T09:19:23.981Z,1015.16
2017-01-08T09:20:23.896Z,1015.13
2017-01-08T09:21:23.905Z,1015.15
2017-01-08T09:22:23.916Z,1015.15
2017-01-08T09:23:24.018Z,1015.16
2017-01-08T09:24:23.939Z,1015.13
2017-01-08T09:25:23.947Z,1015.13
2017-01-08T09:26:23.960Z,1015.16
2017-01-08T09:27:23.968Z,1015.15
2017-01-08T09:28:23.978Z,1015.16
2017-01-08T09:29:23.990Z,1015.16
2017-01-08T09:30:23.998Z,1015.2
2017-01-08T09:31:24.008Z,1015.23
2017-01-08T09:32:24.019Z,1015.18
2017-01-08T09:33:24.029Z,1015.18
2017-01-08T09:34:24.040Z,1015.19
2017-01-08T09:35:24.049Z,1015.22
2017-01-08T09:36:24.061Z,1015.26
2017-01-08T09:37:24.070Z,1015.27
2017-01-08T09:38:24.083Z,1015.28
2017-01-08T09:39:24.091Z,1015.31
2017-01-08T09:40:24.102Z,1015.29
2017-01-08T09:41:24.111Z,1015.32
2017-01-08T09:42:24.125Z,1015.26
2017-01-08T09:43:24.133Z,1015.29
2017-01-08T09:44:24.144Z,1015.26
2017-01-08T09:45:24.155Z,1015.27
2017-01-08T09:46:24.165Z,1015.28
2017-01-08T09:47:24.175Z,1015.24
2017-01-08T09:48:24.186Z,1015.28
2017-01-08T09:49:24.196Z,1015.23
2017-01-08T09:50:24.206Z,1015.24
2017-01-08T09:51:24.217Z,1015.23
2017-01-08T09:52:24.226Z,1015.24
2017-01-08T09:53:24.238Z,1015.24
2017-01-08T09:54:24.250Z,1015.28
2017-01-08T09:55:24.260Z,1015.3
2017-01-08T09:56:24.270Z,1015.31
2017-01-08T09:57:24.281Z,1015.3
2017-01-08T09:58:24.291Z,1015.31
2017-01-08T09:59:24.300Z,1015.32
2017-01-08T10:00:24.310Z,1015.36
2017-01-08T10:01:24.322Z,1015.36
2017-01-08T10:02:24.333Z,1015.35
2017-01-08T10:03:24.341Z,1015.34
2017-01-08T10:04:24.352Z,1015.33
2017-01-08T10:05:24.364Z,1015.34
2017-01-08T10:06:24.373Z,1015.33
2017-01-08T10:07:24.383Z,1015.38
2017-01-08T10:08:24.395Z,1015.35
2017-01-08T10:09:24.404Z,1015.31
2017-01-08T10:10:24.415Z,1015.28
2017-01-08T10:11:24.427Z,1015.3
2017-01-08T10:12:24.436Z,1015.26
2017-01-08T10:13:24.447Z,1015.29
2017-01-08T10:14:24.457Z,1015.26
2017-01-08T10:15:24.468Z,1015.26
2017-01-08T10:16:24.477Z,1015.28
2017-01-08T10:17:24.487Z,1015.28
2017-01-08T10:18:24.499Z,1015.27
2017-01-08T10:19:24.509Z,1015.27
2017-01-08T10:20:24.520Z,1015.29
2017-01-08T10:21:24.528Z,1015.32
2017-01-08T10:22:24.540Z,1015.27
2017-01-08T10:23:24.551Z,1015.28
2017-01-08T10:24:24.563Z,1015.29
2017-01-08T10:25:24.571Z,1015.29
2017-01-08T10:26:24.580Z,1015.3
2017-01-08T10:27:24.592Z,1015.34
2017-01-08T10:28:24.605Z,1015.35
2017-01-08T10:29:24.615Z,1015.42
2017-01-08T10:30:24.622Z,1015.46
2017-01-08T10:31:24.634Z,1015.45
2017-01-08T10:32:24.642Z,1015.43
2017-01-08T10:33:24.657Z,1015.46
2017-01-08T10:34:24.666Z,1015.46
2017-01-08T10:35:24.675Z,1015.44
2017-01-08T10:36:24.685Z,1015.45
2017-01-08T10:37:24.696Z,1015.5
2017-01-08T10:38:24.707Z,1015.53
2017-01-08T10:39:24.716Z,1015.54
2017-01-08T10:40:24.727Z,1015.56
2017-01-08T10:41:24.738Z,1015.52
2017-01-08T10:42:24.748Z,1015.53
2017-01-08T10:43:24.759Z,1015.49
2017-01-08T10:44:24.770Z,1015.56
2017-01-08T10:45:24.779Z,1015.58
2017-01-08T10:46:24.791Z,1015.55
2017-01-08T10:47:24.800Z,1015.56
2017-01-08T10:48:24.811Z,1015.55
2017-01-08T10:49:24.821Z,1015.51
2017-01-08T10:50:24.830Z,1015.49
2017-01-08T10:51:24.842Z,1015.5
2017-01-08T10:52:24.853Z,1015.54
2017-01-08T10:53:24.863Z,1015.56
2017-01-08T10:54:24.874Z,1015.56
2017-01-08T10:55:24.884Z,1015.59
2017-01-08T10:56:24.896Z,1015.56
2017-01-08T10:57:24.907Z,1015.59
2017-01-08T10:58:24.917Z,1015.58
2017-01-08T10:59:24.927Z,1015.58
2017-01-08T11:00:24.936Z,1015.61
2017-01-08T11:01:24.947Z,1015.64
2017-01-08T11:02:24.957Z,1015.65
2017-01-08T11:03:24.969Z,1015.68
2017-01-08T11:04:24.979Z,1015.71
2017-01-08T11:05:24.988Z,1015.75
2017-01-08T11:06:24.999Z,1015.8
2017-01-08T11:07:25.010Z,1015.81
2017-01-08T11:08:25.024Z,1015.83
2017-01-08T11:09:25.029Z,1015.82
2017-01-08T11:10:25.042Z,1015.84
2017-01-08T11:11:25.052Z,1015.83
2017-01-08T11:12:25.064Z,1015.85
2017-01-08T11:13:25.076Z,1015.89
2017-01-08T11:14:25.084Z,1015.89
2017-01-08T11:15:25.095Z,1015.91
2017-01-08T11:16:25.104Z,1015.9
2017-01-08T11:17:25.115Z,1015.92
2017-01-08T11:18:25.128Z,1015.92
2017-01-08T11:19:25.139Z,1015.92
2017-01-08T11:20:25.146Z,1015.91
2017-01-08T11:21:25.156Z,1015.91
2017-01-08T11:22:25.167Z,1015.93
2017-01-08T11:23:25.179Z,1015.95
2017-01-08T11:24:25.187Z,1015.97
2017-01-08T11:25:25.198Z,1015.96
2017-01-08T11:26:25.209Z,1016
2017-01-08T11:27:25.220Z,1015.99
2017-01-08T11:28:25.230Z,1016.01
2017-01-08T11:29:25.242Z,1015.99
2017-01-08T11:30:25.254Z,1015.98
2017-01-08T11:31:25.263Z,1015.93
2017-01-08T11:32:25.273Z,1015.98
2017-01-08T11:33:25.286Z,1015.97
2017-01-08T11:34:25.294Z,1015.95
2017-01-08T11:35:25.304Z,1015.93
2017-01-08T11:36:25.316Z,1015.92
2017-01-08T11:37:25.327Z,1015.89
2017-01-08T11:38:25.340Z,1015.91
2017-01-08T11:39:25.347Z,1015.95
2017-01-08T11:40:25.357Z,1015.9
2017-01-08T11:41:25.368Z,1015.9
2017-01-08T11:42:25.379Z,1015.91
2017-01-08T11:43:25.388Z,1015.9
2017-01-08T11:44:25.400Z,1015.87
2017-01-08T11:45:25.410Z,1015.89
2017-01-08T11:46:25.421Z,1015.88
2017-01-08T11:47:25.434Z,1015.91
2017-01-08T11:48:25.441Z,1015.98
2017-01-08T11:49:25.452Z,1015.95
2017-01-08T11:50:25.463Z,1015.96
2017-01-08T11:51:25.474Z,1016.02
2017-01-08T11:52:25.483Z,1016.02
2017-01-08T11:53:25.497Z,1016.01
2017-01-08T11:54:25.509Z,1016.04
2017-01-08T11:55:25.516Z,1016.04
2017-01-08T11:56:25.530Z,1016.02
2017-01-08T11:57:25.538Z,1016.04
2017-01-08T11:58:25.547Z,1016.02
2017-01-08T11:59:25.558Z,1016.05
2017-01-08T12:00:25.568Z,1016.05
2017-01-08T12:01:25.578Z,1016.02
2017-01-08T12:02:25.588Z,1016.03
2017-01-08T12:03:25.603Z,1016.06
2017-01-08T12:04:25.609Z,1016.03
2017-01-08T12:05:25.620Z,1016.04
2017-01-08T12:06:25.632Z,1016.03
2017-01-08T12:07:25.641Z,1016.04
2017-01-08T12:08:25.652Z,1016.05